Time;durP1;ratioP1;P1;durP2;ratioP2;P2;SDS_P1;SDS_P2;PMS_P1;PMS_P2;Temp;Humidity;BMP_temperature;BMP_pressure;BME280_temperature;BME280_humidity;BME280_pressure;Samples;Min_cycle;Max_cycle;Signal;HPM_P1;HPM_P2
2022/06/22 00:02:09;;;;;;;3.60;1.27;;;11.30;99.90;;;;;;5023021;28;20048;-65
2022/06/22 00:04:45;;;;;;;3.60;1.42;;;11.20;99.90;;;;;;5029475;28;20065;-60
2022/06/22 00:07:23;;;;;;;3.97;1.60;;;11.20;99.90;;;;;;5024052;28;20048;-66
2022/06/22 00:09:55;;;;;;;2.92;1.52;;;11.20;99.90;;;;;;5021395;28;20037;-61
2022/06/22 00:12:28;;;;;;;5.15;1.40;;;11.20;99.90;;;;;;5015477;28;20053;-60
2022/06/22 00:14:57;;;;;;;2.78;1.27;;;11.20;99.90;;;;;;5014028;28;20064;-62
2022/06/22 00:17:34;;;;;;;3.70;1.38;;;11.20;99.90;;;;;;5029407;28;20048;-65
2022/06/22 00:20:08;;;;;;;3.15;1.65;;;11.20;99.90;;;;;;5029099;28;20041;-62
2022/06/22 00:22:50;;;;;;;4.18;1.52;;;11.10;99.90;;;;;;5024390;28;20037;-65
2022/06/22 00:25:24;;;;;;;2.17;1.20;;;11.10;99.90;;;;;;5016959;28;20487;-63
2022/06/22 00:27:50;;;;;;;2.38;1.52;;;11.00;99.90;;;;;;5027339;28;20052;-70
2022/06/22 00:30:25;;;;;;;10.52;3.63;;;11.00;99.90;;;;;;4999694;28;20503;-63
2022/06/22 00:33:02;;;;;;;9.23;2.67;;;10.90;99.90;;;;;;5010368;28;20053;-62
2022/06/22 00:35:53;;;;;;;4.47;1.88;;;10.90;99.90;;;;;;5014698;28;20118;-64
2022/06/22 00:38:32;;;;;;;3.25;2.13;;;10.80;99.90;;;;;;5029184;28;20057;-60
2022/06/22 00:41:02;;;;;;;2.90;1.40;;;10.80;99.90;;;;;;5028128;28;20048;-57
2022/06/22 00:43:32;;;;;;;2.75;1.55;;;10.80;99.90;;;;;;5015927;28;20057;-60
2022/06/22 00:46:00;;;;;;;4.55;1.85;;;10.70;99.90;;;;;;5029150;28;20041;-57
2022/06/22 00:48:34;;;;;;;3.08;1.25;;;10.70;99.90;;;;;;5027711;28;20116;-63
2022/06/22 00:51:12;;;;;;;2.50;1.20;;;10.70;99.90;;;;;;5028495;28;20053;-68
2022/06/22 00:53:44;;;;;;;1.00;0.88;;;10.70;99.90;;;;;;5015761;28;20057;-64
2022/06/22 00:56:12;;;;;;;1.95;1.10;;;10.70;99.90;;;;;;5012655;28;20551;-60
2022/06/22 00:58:38;;;;;;;1.30;1.20;;;10.60;99.90;;;;;;5014849;28;20067;-58
2022/06/22 01:01:42;;;;;;;2.22;1.23;;;10.60;99.90;;;;;;5027800;28;20053;-60
2022/06/22 01:04:15;;;;;;;2.15;1.35;;;10.60;99.90;;;;;;5019246;28;20154;-61
2022/06/22 01:07:07;;;;;;;1.52;1.48;;;10.50;99.90;;;;;;5027852;28;20060;-59
2022/06/22 01:09:38;;;;;;;2.17;1.23;;;10.60;99.90;;;;;;5026796;28;20060;-66
2022/06/22 01:12:16;;;;;;;1.77;1.67;;;10.50;99.90;;;;;;5027889;28;20128;-68
2022/06/22 01:14:56;;;;;;;2.10;1.83;;;10.50;99.90;;;;;;5022630;28;20491;-58
2022/06/22 01:17:57;;;;;;;4.50;1.10;;;10.40;99.90;;;;;;5029069;28;20056;-61
2022/06/22 01:20:50;;;;;;;2.13;1.98;;;10.40;99.90;;;;;;5025771;28;20080;-59
2022/06/22 01:23:47;;;;;;;5.32;2.55;;;10.30;99.90;;;;;;5026185;28;20063;-61
2022/06/22 01:26:35;;;;;;;10.70;2.20;;;10.20;99.90;;;;;;5028291;28;20048;-68
2022/06/22 01:29:10;;;;;;;1.88;1.77;;;10.20;99.90;;;;;;5028228;28;20128;-58
2022/06/22 01:31:41;;;;;;;3.67;2.65;;;10.20;99.90;;;;;;5026918;28;20569;-67
2022/06/22 01:34:15;;;;;;;1.85;1.60;;;10.20;99.90;;;;;;5044566;28;20183;-60
2022/06/22 01:36:41;;;;;;;0.90;0.90;;;10.20;99.90;;;;;;5010565;28;20455;-64
2022/06/22 01:39:11;;;;;;;2.08;1.67;;;10.10;99.90;;;;;;5010600;28;20043;-62
2022/06/22 01:41:45;;;;;;;1.88;1.65;;;10.10;99.90;;;;;;5019770;28;20049;-61
2022/06/22 01:44:33;;;;;;;2.53;1.73;;;10.10;99.90;;;;;;5036258;28;20052;-59
2022/06/22 01:47:17;;;;;;;2.58;1.98;;;10.00;99.90;;;;;;5017619;28;20391;-64
2022/06/22 01:49:58;;;;;;;1.58;1.48;;;10.00;99.90;;;;;;5010617;28;20134;-58
2022/06/22 01:52:33;;;;;;;2.08;1.55;;;9.90;99.90;;;;;;5028002;28;20144;-66
2022/06/22 01:55:09;;;;;;;2.78;2.10;;;9.90;99.90;;;;;;5027713;28;20131;-57
2022/06/22 01:57:40;;;;;;;3.63;2.33;;;9.90;99.90;;;;;;5028207;28;20056;-58
2022/06/22 02:00:13;;;;;;;4.28;2.20;;;9.90;99.90;;;;;;5030738;28;20568;-62
2022/06/22 02:02:44;;;;;;;5.30;2.17;;;9.90;99.90;;;;;;5023734;28;20563;-58
2022/06/22 02:05:23;;;;;;;4.60;1.67;;;9.90;99.90;;;;;;5025625;28;20045;-60
2022/06/22 02:08:20;;;;;;;4.57;1.88;;;9.90;99.90;;;;;;5017872;28;20045;-59
2022/06/22 02:11:02;;;;;;;9.93;1.52;;;9.80;99.90;;;;;;5041989;28;20434;-64
2022/06/22 02:13:48;;;;;;;4.85;1.80;;;9.80;99.90;;;;;;5028676;28;20052;-63
2022/06/22 02:16:50;;;;;;;9.82;1.83;;;9.80;99.90;;;;;;5026970;28;20052;-57
2022/06/22 02:19:17;;;;;;;2.20;2.00;;;9.80;99.90;;;;;;5023680;28;20481;-59
2022/06/22 02:21:45;;;;;;;3.15;2.53;;;9.70;99.90;;;;;;5000224;28;20483;-61
2022/06/22 02:24:18;;;;;;;2.63;2.47;;;9.70;99.90;;;;;;5028311;28;20422;-61
2022/06/22 02:27:01;;;;;;;6.40;2.65;;;9.70;99.90;;;;;;5015332;28;20040;-62
2022/06/22 02:29:34;;;;;;;3.00;2.70;;;9.70;99.90;;;;;;5030775;28;20724;-58
2022/06/22 02:32:02;;;;;;;48.55;2.92;;;9.70;99.90;;;;;;5020749;28;20139;-59
2022/06/22 02:34:30;;;;;;;75.05;3.42;;;9.70;99.90;;;;;;5013048;28;20057;-67
2022/06/22 02:36:58;;;;;;;64.90;3.50;;;9.70;99.90;;;;;;5030127;28;20044;-62
2022/06/22 02:39:25;;;;;;;73.43;3.88;;;9.70;99.90;;;;;;5035036;28;20598;-57
2022/06/22 02:44:39;;;;;;;58.55;2.80;;;9.60;99.90;;;;;;5030845;28;20080;-64
2022/06/22 02:47:23;;;;;;;56.55;2.60;;;9.60;99.90;;;;;;5031277;28;20056;-59
2022/06/22 02:50:00;;;;;;;49.17;2.10;;;9.50;99.90;;;;;;5029642;28;20087;-60
2022/06/22 02:52:34;;;;;;;25.73;1.77;;;9.40;99.90;;;;;;5023737;28;20132;-63
2022/06/22 02:55:02;;;;;;;79.43;3.67;;;9.40;99.90;;;;;;5047751;28;20053;-63
2022/06/22 02:57:46;;;;;;;15.80;3.35;;;9.40;99.90;;;;;;5031094;28;20049;-66
2022/06/22 03:00:14;;;;;;;26.25;3.22;;;9.40;99.90;;;;;;5031300;28;20092;-67
2022/06/22 03:02:44;;;;;;;11.40;3.08;;;9.40;99.90;;;;;;5028856;28;20060;-67
2022/06/22 03:05:11;;;;;;;7.15;2.55;;;9.40;99.90;;;;;;5014259;28;20065;-58
2022/06/22 03:07:42;;;;;;;2.08;1.90;;;9.30;99.90;;;;;;5012577;28;20060;-62
2022/06/22 03:10:22;;;;;;;2.78;2.60;;;9.30;99.90;;;;;;5030557;28;20049;-59
2022/06/22 03:12:49;;;;;;;2.70;2.20;;;9.30;99.90;;;;;;5018500;28;20081;-64
2022/06/22 03:15:20;;;;;;;2.88;2.00;;;9.30;99.90;;;;;;5029300;28;20052;-62
2022/06/22 03:17:46;;;;;;;2.38;1.73;;;9.30;99.90;;;;;;5030668;28;20045;-58
2022/06/22 03:20:16;;;;;;;5.88;2.50;;;9.30;99.90;;;;;;5028560;28;20053;-64
2022/06/22 03:22:57;;;;;;;8.30;2.90;;;9.30;99.90;;;;;;5020159;28;20049;-60
2022/06/22 03:25:46;;;;;;;31.60;2.40;;;9.30;99.90;;;;;;5029664;28;20053;-58
2022/06/22 03:28:19;;;;;;;27.27;3.33;;;9.30;99.90;;;;;;5029007;28;20056;-63
2022/06/22 03:30:59;;;;;;;3.28;3.03;;;9.40;99.90;;;;;;5031039;28;20049;-66
2022/06/22 03:33:41;;;;;;;3.35;3.15;;;9.40;99.90;;;;;;5024547;28;20448;-63
2022/06/22 03:36:21;;;;;;;11.65;2.80;;;9.40;99.90;;;;;;5012908;28;20110;-59
2022/06/22 03:38:55;;;;;;;73.05;2.90;;;9.30;99.90;;;;;;5013615;28;20097;-57
2022/06/22 03:41:26;;;;;;;56.38;3.22;;;9.30;99.90;;;;;;5046423;28;20041;-66
2022/06/22 03:43:54;;;;;;;80.13;3.13;;;9.20;99.90;;;;;;5028528;28;20123;-65
2022/06/22 03:46:24;;;;;;;43.42;2.83;;;9.20;99.90;;;;;;5027844;28;20048;-60
2022/06/22 03:48:57;;;;;;;6.00;3.00;;;9.20;99.90;;;;;;5029953;28;20049;-65
2022/06/22 03:51:27;;;;;;;22.23;4.00;;;9.20;99.90;;;;;;5011840;28;20128;-58
2022/06/22 03:54:11;;;;;;;;;;;9.20;99.90;;;;;;5026276;28;20084;-62
2022/06/22 03:56:49;;;;;;;64.43;3.88;;;9.20;99.90;;;;;;5030405;28;19924;-60
2022/06/22 03:59:15;;;;;;;7.63;4.55;;;9.30;99.90;;;;;;5011486;28;20041;-63
2022/06/22 04:01:42;;;;;;;4.10;3.80;;;9.40;99.90;;;;;;5029486;28;20053;-61
2022/06/22 04:04:09;;;;;;;4.00;3.70;;;9.40;99.90;;;;;;5026603;28;20122;-57
2022/06/22 04:06:49;;;;;;;8.70;3.90;;;9.50;99.90;;;;;;5029592;28;20041;-62
2022/06/22 04:09:22;;;;;;;6.13;3.80;;;9.40;99.90;;;;;;5029606;28;20045;-58
2022/06/22 04:11:55;;;;;;;9.38;3.50;;;9.40;99.90;;;;;;5028412;28;20063;-61
2022/06/22 04:14:46;;;;;;;19.90;4.30;;;9.50;99.90;;;;;;5023907;28;20049;-64
2022/06/22 04:17:39;;;;;;;49.83;4.53;;;9.50;99.90;;;;;;5021335;28;20514;-60
2022/06/22 04:20:17;;;;;;;5.28;4.55;;;9.60;99.90;;;;;;5014789;28;20045;-65
2022/06/22 04:22:48;;;;;;;5.13;4.72;;;9.60;99.90;;;;;;5026314;28;20049;-63
2022/06/22 04:25:32;;;;;;;77.43;5.88;;;9.60;99.90;;;;;;5028318;28;20211;-62
2022/06/22 04:28:02;;;;;;;117.47;6.10;;;9.80;99.90;;;;;;5029134;28;20047;-61
2022/06/22 04:30:31;;;;;;;5.57;5.07;;;9.90;99.90;;;;;;5025846;28;20048;-65
2022/06/22 04:33:14;;;;;;;5.97;4.70;;;9.90;99.90;;;;;;5040885;28;20092;-63
2022/06/22 04:36:01;;;;;;;4.57;4.18;;;10.00;99.90;;;;;;5027466;28;20061;-63
2022/06/22 04:38:45;;;;;;;9.65;6.03;;;10.10;99.90;;;;;;5036614;28;20526;-60
2022/06/22 04:41:14;;;;;;;9.45;5.95;;;10.40;99.90;;;;;;5021165;28;20128;-63
2022/06/22 04:43:39;;;;;;;6.80;6.05;;;10.60;99.90;;;;;;5025807;28;20367;-58
2022/06/22 04:46:10;;;;;;;8.85;5.82;;;10.80;99.90;;;;;;5008994;28;20041;-61
2022/06/22 04:48:39;;;;;;;9.75;6.35;;;11.00;99.90;;;;;;5024206;28;20040;-60
2022/06/22 04:51:10;;;;;;;9.77;8.23;;;11.10;99.90;;;;;;5025282;28;20053;-65
2022/06/22 04:53:49;;;;;;;11.00;8.07;;;11.20;99.90;;;;;;5022796;28;20486;-66
2022/06/22 04:56:21;;;;;;;10.40;8.13;;;11.30;99.90;;;;;;5025618;28;20052;-59
2022/06/22 04:58:51;;;;;;;12.45;8.00;;;11.40;99.90;;;;;;5007698;28;20414;-58
2022/06/22 05:01:40;;;;;;;13.05;8.50;;;11.60;99.90;;;;;;5010322;28;20403;-61
2022/06/22 05:04:13;;;;;;;15.60;10.02;;;11.70;99.90;;;;;;5019653;28;20365;-62
2022/06/22 05:06:58;;;;;;;20.50;12.43;;;11.90;99.90;;;;;;5026519;28;20048;-61
2022/06/22 05:09:40;;;;;;;21.00;12.80;;;12.40;99.90;;;;;;5014717;28;20044;-60
2022/06/22 05:12:13;;;;;;;32.70;15.80;;;12.90;99.90;;;;;;5011270;28;20045;-63
2022/06/22 05:14:41;;;;;;;33.70;19.65;;;13.40;99.90;;;;;;5017434;28;20048;-58
2022/06/22 05:17:27;;;;;;;42.63;21.92;;;13.50;99.90;;;;;;5020180;28;20063;-59
2022/06/22 05:20:02;;;;;;;39.50;21.10;;;13.70;99.90;;;;;;5016379;28;20033;-61
2022/06/22 05:22:28;;;;;;;42.60;21.48;;;13.70;99.90;;;;;;5011471;28;20052;-61
2022/06/22 05:24:59;;;;;;;39.28;20.38;;;13.90;99.90;;;;;;5026245;28;20037;-65
2022/06/22 05:27:33;;;;;;;37.55;21.10;;;13.90;99.90;;;;;;5028640;28;20052;-63
2022/06/22 05:30:05;;;;;;;36.60;19.52;;;14.00;99.90;;;;;;5010898;28;20363;-58
2022/06/22 05:32:34;;;;;;;40.47;21.00;;;14.10;99.90;;;;;;5028502;28;20045;-61
2022/06/22 05:35:06;;;;;;;39.65;19.45;;;14.10;99.90;;;;;;5008325;28;20053;-64
2022/06/22 05:37:35;;;;;;;32.78;16.42;;;14.20;99.90;;;;;;5008658;28;20081;-62
2022/06/22 05:40:02;;;;;;;28.70;17.70;;;14.30;99.90;;;;;;5045334;28;20479;-58
2022/06/22 05:42:31;;;;;;;26.90;18.27;;;14.40;99.90;;;;;;5010521;28;20452;-62
2022/06/22 05:44:58;;;;;;;33.43;17.83;;;14.50;99.90;;;;;;5012341;28;20041;-62
2022/06/22 05:47:33;;;;;;;26.95;14.75;;;14.60;99.90;;;;;;5024444;28;20291;-64
2022/06/22 05:50:31;;;;;;;27.10;14.60;;;14.70;99.90;;;;;;5015911;28;20051;-58
2022/06/22 05:53:13;;;;;;;31.85;14.95;;;14.70;99.90;;;;;;5012419;28;20514;-58
2022/06/22 05:56:02;;;;;;;19.85;12.52;;;14.70;99.90;;;;;;5025795;28;20085;-60
2022/06/22 05:59:07;;;;;;;26.57;13.00;;;14.80;99.90;;;;;;5027398;28;20045;-67
2022/06/22 06:01:56;;;;;;;26.50;14.15;;;14.90;99.90;;;;;;5030874;28;20049;-58
2022/06/22 06:04:38;;;;;;;20.23;12.82;;;15.10;99.90;;;;;;5025996;28;20045;-60
2022/06/22 06:07:27;;;;;;;26.13;13.57;;;15.10;99.90;;;;;;5028300;28;20049;-64
2022/06/22 06:09:53;;;;;;;20.92;12.90;;;15.10;99.90;;;;;;5041121;28;20045;-61
2022/06/22 06:12:31;;;;;;;22.85;12.82;;;15.20;99.90;;;;;;5031297;28;20047;-65
2022/06/22 06:14:57;;;;;;;24.40;10.52;;;15.30;99.90;;;;;;5031889;28;20487;-62
2022/06/22 06:17:36;;;;;;;12.25;4.97;;;15.30;99.90;;;;;;5029749;28;20079;-61
2022/06/22 06:20:05;;;;;;;20.80;8.05;;;15.30;99.90;;;;;;5015804;28;20080;-59
2022/06/22 06:22:31;;;;;;;17.25;7.68;;;15.30;99.90;;;;;;5026828;28;20506;-58
2022/06/22 06:27:55;;;;;;;16.02;6.47;;;15.50;99.90;;;;;;5058441;28;20530;-63
2022/06/22 06:30:32;;;;;;;9.38;5.13;;;15.50;99.90;;;;;;5030147;28;20088;-58
2022/06/22 06:32:59;;;;;;;8.48;3.58;;;15.60;99.90;;;;;;5031896;28;20490;-64
2022/06/22 06:36:04;;;;;;;12.45;4.50;;;15.70;99.90;;;;;;5029548;28;20092;-59
2022/06/22 06:38:56;;;;;;;5.53;3.97;;;15.70;99.90;;;;;;5028595;28;20071;-64
2022/06/22 06:41:31;;;;;;;6.25;4.38;;;15.80;99.90;;;;;;5006054;28;20046;-62
2022/06/22 06:44:23;;;;;;;10.13;3.53;;;15.80;99.90;;;;;;5028177;28;20044;-60
2022/06/22 06:46:56;;;;;;;7.05;2.60;;;15.80;99.90;;;;;;5023471;28;20041;-61
2022/06/22 06:49:30;;;;;;;6.13;2.70;;;15.90;99.90;;;;;;5011973;28;20033;-58
2022/06/22 06:52:03;;;;;;;9.07;2.63;;;15.90;99.90;;;;;;5028092;28;20388;-62
2022/06/22 06:54:48;;;;;;;9.52;3.08;;;16.00;99.90;;;;;;5013275;28;20454;-59
2022/06/22 06:57:18;;;;;;;9.98;3.30;;;16.00;99.90;;;;;;5027340;28;20390;-61
2022/06/22 06:59:45;;;;;;;;;;;16.10;99.90;;;;;;5011918;28;20055;-64
2022/06/22 07:02:31;;;;;;;10.80;3.13;;;16.30;99.90;;;;;;5025398;28;19925;-55
2022/06/22 07:04:59;;;;;;;8.55;3.88;;;16.40;99.90;;;;;;5027350;28;20073;-63
2022/06/22 07:07:34;;;;;;;8.80;2.95;;;16.50;99.90;;;;;;5046473;28;20141;-58
2022/06/22 07:10:08;;;;;;;10.15;3.33;;;16.60;99.90;;;;;;5010290;28;20041;-58
2022/06/22 07:12:39;;;;;;;6.55;3.05;;;16.70;99.90;;;;;;5023983;28;20050;-57
2022/06/22 07:15:10;;;;;;;10.68;3.25;;;16.70;99.90;;;;;;5028702;28;20052;-60
2022/06/22 07:17:37;;;;;;;9.48;3.10;;;16.90;99.90;;;;;;5020256;28;20045;-68
2022/06/22 07:20:16;;;;;;;6.20;2.85;;;17.00;99.90;;;;;;5034555;28;20044;-60
2022/06/22 07:22:49;;;;;;;;;;;17.20;99.90;;;;;;5024780;28;20087;-59
2022/06/22 07:25:24;;;;;;;12.07;2.92;;;17.50;99.90;;;;;;5048840;28;20353;-59
2022/06/22 07:28:16;;;;;;;10.45;3.10;;;17.80;99.90;;;;;;5025471;28;20052;-57
2022/06/22 07:30:51;;;;;;;10.93;2.47;;;17.90;99.90;;;;;;5023134;28;20056;-60
2022/06/22 07:33:40;;;;;;;12.43;2.95;;;18.20;99.90;;;;;;5037658;28;20049;-65
2022/06/22 07:36:21;;;;;;;13.17;3.07;;;18.40;99.90;;;;;;5046487;28;20372;-57
2022/06/22 07:38:52;;;;;;;11.98;2.90;;;18.50;99.90;;;;;;5023745;28;20037;-67
2022/06/22 07:41:22;;;;;;;7.05;2.30;;;18.80;99.90;;;;;;5025986;28;20072;-63
2022/06/22 07:44:04;;;;;;;11.82;2.70;;;18.90;99.90;;;;;;5024504;28;20045;-64
2022/06/22 07:46:48;;;;;;;5.40;2.22;;;19.20;99.90;;;;;;5009333;28;20037;-59
2022/06/22 07:49:20;;;;;;;6.53;2.17;;;19.30;98.50;;;;;;5024012;28;20491;-56
2022/06/22 07:51:55;;;;;;;6.82;2.25;;;19.20;96.20;;;;;;5024811;28;20569;-61
2022/06/22 07:54:31;;;;;;;6.03;2.50;;;19.30;99.70;;;;;;5026404;28;20368;-60
2022/06/22 07:57:20;;;;;;;4.63;2.17;;;19.40;98.30;;;;;;5043323;28;20040;-64
2022/06/22 07:59:57;;;;;;;6.25;2.05;;;19.50;95.60;;;;;;5045073;28;20495;-60
2022/06/22 08:02:29;;;;;;;7.80;2.58;;;19.60;91.50;;;;;;5027987;28;20037;-57
2022/06/22 08:05:03;;;;;;;8.48;2.33;;;19.50;92.30;;;;;;5027392;28;20131;-67
2022/06/22 08:07:36;;;;;;;6.07;2.40;;;19.20;91.70;;;;;;5043832;28;20530;-62
2022/06/22 08:10:12;;;;;;;10.20;2.60;;;19.40;94.00;;;;;;5026768;28;20037;-62
2022/06/22 08:12:46;;;;;;;9.80;2.88;;;19.20;93.00;;;;;;5026865;28;20084;-59
2022/06/22 08:15:16;;;;;;;8.75;3.17;;;19.20;95.30;;;;;;5027735;28;20087;-61
2022/06/22 08:17:43;;;;;;;;;;;19.10;98.20;;;;;;5028103;28;20072;-58
2022/06/22 08:20:21;;;;;;;13.32;4.57;;;19.00;97.00;;;;;;5027138;28;19920;-65
2022/06/22 08:22:49;;;;;;;11.48;3.33;;;19.10;97.30;;;;;;5023832;28;20226;-58
2022/06/22 08:25:18;;;;;;;7.95;2.33;;;19.20;99.30;;;;;;4994157;28;20064;-58
2022/06/22 08:27:44;;;;;;;7.60;2.35;;;19.30;99.90;;;;;;4992072;28;20083;-69
2022/06/22 08:30:12;;;;;;;8.30;2.50;;;19.40;97.30;;;;;;5010210;28;20476;-67
2022/06/22 08:32:54;;;;;;;8.77;2.33;;;19.50;99.00;;;;;;4993772;28;20045;-56
2022/06/22 08:35:47;;;;;;;9.27;3.10;;;19.60;99.50;;;;;;5008438;28;20061;-66
2022/06/22 08:38:29;;;;;;;9.10;2.42;;;19.70;92.50;;;;;;5026375;28;20441;-65
2022/06/22 08:41:13;;;;;;;10.63;3.08;;;19.90;96.60;;;;;;5027797;28;20091;-62
2022/06/22 08:43:42;;;;;;;8.70;2.60;;;20.10;93.70;;;;;;5024124;28;20051;-62
2022/06/22 08:46:16;;;;;;;6.70;2.70;;;20.00;92.60;;;;;;5026611;28;20571;-62
2022/06/22 08:49:17;;;;;;;10.02;2.83;;;20.00;96.10;;;;;;5025507;28;20434;-61
2022/06/22 08:51:43;;;;;;;9.77;2.28;;;20.00;92.50;;;;;;5024993;28;20405;-58
2022/06/22 08:54:24;;;;;;;8.77;2.58;;;19.90;94.70;;;;;;5025303;28;20060;-58
2022/06/22 08:57:07;;;;;;;13.57;2.78;;;19.90;90.40;;;;;;5022102;28;20476;-57
2022/06/22 08:59:50;;;;;;;6.32;2.38;;;19.80;96.80;;;;;;5032992;28;20041;-65
2022/06/22 09:02:29;;;;;;;10.70;2.95;;;20.00;91.70;;;;;;4997556;28;20053;-65
2022/06/22 09:05:19;;;;;;;;;;;20.00;88.60;;;;;;5011970;28;20053;-65
2022/06/22 09:08:06;;;;;;;8.45;2.47;;;20.10;82.80;;;;;;5011203;28;19925;-68
2022/06/22 09:10:50;;;;;;;7.78;2.72;;;19.80;85.90;;;;;;5042708;28;20103;-68
2022/06/22 09:13:16;;;;;;;8.50;2.50;;;20.00;87.10;;;;;;5042782;28;20099;-68
2022/06/22 09:16:09;;;;;;;8.20;2.70;;;20.20;76.40;;;;;;5025490;28;20053;-59
2022/06/22 09:18:45;;;;;;;13.68;3.40;;;20.40;90.70;;;;;;5008522;28;20135;-64
2022/06/22 09:21:31;;;;;;;7.65;2.70;;;20.30;75.60;;;;;;5011440;28;20060;-58
2022/06/22 09:24:23;;;;;;;7.07;2.75;;;20.30;71.30;;;;;;5028173;28;20495;-64
2022/06/22 09:27:20;;;;;;;8.93;2.88;;;20.20;72.50;;;;;;4999731;28;20164;-68
2022/06/22 09:30:29;;;;;;;10.73;2.95;;;20.40;76.90;;;;;;5013632;28;20046;-58
2022/06/22 09:33:04;;;;;;;12.88;3.08;;;20.30;60.00;;;;;;5023867;28;20060;-61
2022/06/22 09:35:30;;;;;;;6.80;2.80;;;20.20;56.90;;;;;;5042347;28;20048;-61
2022/06/22 09:38:30;;;;;;;6.03;2.72;;;20.30;69.10;;;;;;5019403;28;20048;-61
2022/06/22 09:41:06;;;;;;;5.28;2.40;;;20.30;68.30;;;;;;4992982;28;20108;-69
2022/06/22 09:43:40;;;;;;;7.03;2.55;;;20.50;57.80;;;;;;5026271;28;20045;-68
2022/06/22 09:46:23;;;;;;;10.23;2.50;;;20.50;50.60;;;;;;5014304;28;20045;-63
2022/06/22 09:49:26;;;;;;;5.90;2.45;;;20.30;61.00;;;;;;5027016;28;20037;-60
2022/06/22 09:51:54;;;;;;;10.20;2.60;;;20.40;66.70;;;;;;5027786;28;20060;-67
2022/06/22 09:57:42;;;;;;;8.23;2.88;;;20.40;50.40;;;;;;5018390;28;20048;-65
2022/06/22 10:00:08;;;;;;;4.63;2.33;;;20.40;65.10;;;;;;5032816;28;20931;-60
2022/06/22 10:02:58;;;;;;;7.72;2.42;;;20.30;57.40;;;;;;5030757;28;20049;-61
2022/06/22 10:05:42;;;;;;;10.80;2.92;;;20.30;73.20;;;;;;5029163;28;20041;-63
2022/06/22 10:08:39;;;;;;;12.20;3.08;;;20.30;84.60;;;;;;5031747;28;20089;-69
2022/06/22 10:11:15;;;;;;;5.90;2.75;;;20.40;74.30;;;;;;5042246;28;20134;-67
2022/06/22 10:14:00;;;;;;;6.30;2.90;;;20.30;70.70;;;;;;5029067;28;20516;-62
2022/06/22 10:16:48;;;;;;;7.65;2.80;;;20.20;71.00;;;;;;5006424;28;20051;-69
2022/06/22 10:19:54;;;;;;;8.73;2.72;;;20.10;80.40;;;;;;5002556;28;20041;-64
2022/06/22 10:22:48;;;;;;;9.35;2.92;;;20.00;64.20;;;;;;5027889;28;20057;-58
2022/06/22 10:25:37;;;;;;;6.70;2.72;;;20.00;73.10;;;;;;5018171;28;20124;-57
2022/06/22 10:28:22;;;;;;;4.78;2.50;;;20.10;69.20;;;;;;4997876;28;20045;-60
2022/06/22 10:31:07;;;;;;;11.63;2.92;;;20.00;71.60;;;;;;5022078;28;20057;-62
2022/06/22 10:33:51;;;;;;;6.72;2.10;;;19.90;63.70;;;;;;5011905;28;20049;-61
2022/06/22 10:36:17;;;;;;;9.18;2.42;;;19.90;81.40;;;;;;5015554;28;20127;-66
2022/06/22 10:39:01;;;;;;;5.00;2.50;;;19.90;75.80;;;;;;5016523;28;20473;-66
2022/06/22 10:47:45;;;;;;;4.55;2.13;;;19.90;57.70;;;;;;5026260;28;20041;-69
2022/06/22 10:50:32;;;;;;;9.10;2.83;;;19.80;62.90;;;;;;5009773;28;20115;-58
2022/06/22 10:53:22;;;;;;;7.05;2.47;;;20.00;70.90;;;;;;5022251;28;20171;-59
2022/06/22 10:55:59;;;;;;;5.57;2.47;;;20.10;75.40;;;;;;5036544;28;20146;-68
2022/06/22 10:58:46;;;;;;;7.07;2.70;;;20.00;63.00;;;;;;5015644;28;20073;-66
2022/06/22 11:01:17;;;;;;;6.15;2.13;;;20.00;64.50;;;;;;5023502;28;20052;-62
2022/06/22 11:04:09;;;;;;;8.45;2.80;;;20.10;63.10;;;;;;5032505;28;20128;-58
2022/06/22 11:06:37;;;;;;;7.32;2.97;;;20.20;47.00;;;;;;4979473;28;20064;-63
2022/06/22 11:09:06;;;;;;;7.03;2.30;;;20.00;52.90;;;;;;5024798;28;20080;-67
2022/06/22 11:11:50;;;;;;;7.03;2.22;;;20.10;90.30;;;;;;5024833;28;20129;-62
2022/06/22 11:14:29;;;;;;;8.32;2.70;;;20.00;78.90;;;;;;5025037;28;20507;-62
2022/06/22 11:17:14;;;;;;;;;;;20.10;73.60;;;;;;5029026;28;20052;-59
2022/06/22 11:19:54;;;;;;;10.25;2.28;;;20.10;78.90;;;;;;5023908;28;19987;-63
2022/06/22 11:22:32;;;;;;;8.98;2.38;;;20.10;81.20;;;;;;5017848;28;20049;-64
2022/06/22 11:25:16;;;;;;;8.48;2.67;;;20.10;78.80;;;;;;5013308;28;20088;-60
2022/06/22 11:30:56;;;;;;;9.85;2.58;;;20.30;86.40;;;;;;5015501;28;20054;-58
2022/06/22 11:33:44;;;;;;;8.23;2.83;;;20.30;71.40;;;;;;5022587;28;20475;-57
2022/06/22 11:36:44;;;;;;;10.30;1.90;;;20.10;73.10;;;;;;5007478;28;20040;-65
2022/06/22 11:39:51;;;;;;;4.38;2.15;;;20.00;89.00;;;;;;5021604;28;20053;-60
2022/06/22 11:42:32;;;;;;;4.00;2.00;;;19.90;88.50;;;;;;4984094;28;20064;-61
2022/06/22 11:45:50;;;;;;;6.43;2.25;;;20.00;81.30;;;;;;5017348;28;20415;-60
2022/06/22 11:48:38;;;;;;;9.43;2.58;;;20.00;91.20;;;;;;5027498;28;20095;-69
2022/06/22 11:51:15;;;;;;;10.40;2.70;;;20.30;91.70;;;;;;5024574;28;20075;-57
2022/06/22 11:53:47;;;;;;;5.30;2.35;;;20.30;80.10;;;;;;5023531;28;20124;-66
2022/06/22 11:56:39;;;;;;;5.32;2.28;;;20.30;81.40;;;;;;5026724;28;20060;-66
2022/06/22 11:59:22;;;;;;;7.22;2.03;;;20.40;86.50;;;;;;5032456;28;20049;-66
2022/06/22 12:02:10;;;;;;;6.88;2.30;;;20.30;90.60;;;;;;5016003;28;20496;-69
2022/06/22 12:05:09;;;;;;;5.55;2.10;;;20.20;90.10;;;;;;5017794;28;20145;-63
2022/06/22 12:07:50;;;;;;;8.73;2.20;;;20.30;86.70;;;;;;5021162;28;20056;-64
2022/06/22 12:10:35;;;;;;;9.52;2.63;;;20.30;81.40;;;;;;5025302;28;20044;-65
2022/06/22 12:13:31;;;;;;;4.43;1.88;;;20.30;84.90;;;;;;5022360;28;20103;-58
2022/06/22 12:16:38;;;;;;;5.00;2.15;;;20.10;88.60;;;;;;5013670;28;20049;-62
2022/06/22 12:19:22;;;;;;;6.28;2.40;;;20.20;90.30;;;;;;5032231;28;20053;-59
2022/06/22 12:21:55;;;;;;;6.13;2.60;;;20.40;89.50;;;;;;5012371;28;20041;-62
2022/06/22 12:24:40;;;;;;;5.63;2.20;;;20.40;78.40;;;;;;5012764;28;20041;-69
2022/06/22 12:27:12;;;;;;;8.32;2.30;;;20.30;84.40;;;;;;5013339;28;20049;-58
2022/06/22 12:30:04;;;;;;;9.93;2.08;;;20.30;83.00;;;;;;5010545;28;20057;-58
2022/06/22 12:32:45;;;;;;;7.97;2.47;;;20.30;77.50;;;;;;5022838;28;20041;-62
2022/06/22 12:35:39;;;;;;;6.00;2.33;;;20.40;74.20;;;;;;5028358;28;20056;-66
2022/06/22 12:38:30;;;;;;;5.47;2.40;;;20.30;76.00;;;;;;5003541;28;20045;-59
2022/06/22 12:40:58;;;;;;;3.45;1.77;;;20.30;73.80;;;;;;5024090;28;20060;-64
2022/06/22 12:43:33;;;;;;;6.85;2.10;;;20.30;62.00;;;;;;5020433;28;20049;-68
2022/06/22 12:46:14;;;;;;;8.60;2.28;;;20.20;75.60;;;;;;5023753;28;20139;-70
2022/06/22 12:49:12;;;;;;;4.55;1.98;;;20.20;79.90;;;;;;5024267;28;20110;-69
2022/06/22 12:51:46;;;;;;;7.05;2.22;;;20.30;78.30;;;;;;5031470;28;20068;-57
2022/06/22 12:54:24;;;;;;;5.40;2.80;;;20.30;62.30;;;;;;5022411;28;20457;-60
2022/06/22 12:57:02;;;;;;;5.47;2.15;;;20.20;70.10;;;;;;5022087;28;20510;-70
2022/06/22 12:59:37;;;;;;;5.13;2.40;;;20.10;80.50;;;;;;5043112;28;20126;-65
2022/06/22 13:02:14;;;;;;;4.47;2.15;;;20.30;72.00;;;;;;5023605;28;20036;-58
2022/06/22 13:04:42;;;;;;;7.18;1.98;;;20.30;72.30;;;;;;5027678;28;20047;-57
2022/06/22 13:07:13;;;;;;;6.68;2.15;;;20.30;81.00;;;;;;5027062;28;20097;-64
2022/06/22 13:09:39;;;;;;;4.75;2.10;;;20.20;65.00;;;;;;5008571;28;20060;-63
2022/06/22 13:12:40;;;;;;;5.47;2.15;;;20.10;77.80;;;;;;5020258;28;20053;-57
2022/06/22 13:15:21;;;;;;;7.75;2.05;;;20.10;83.50;;;;;;5002566;28;20045;-63
2022/06/22 13:17:59;;;;;;;8.73;1.83;;;19.90;85.00;;;;;;5018882;28;20064;-69
2022/06/22 13:20:45;;;;;;;7.88;2.25;;;20.00;78.10;;;;;;5020928;28;20048;-59
2022/06/22 13:23:39;;;;;;;11.35;2.03;;;20.10;84.30;;;;;;5020694;28;20101;-59
2022/06/22 13:26:32;;;;;;;8.13;2.00;;;19.90;66.70;;;;;;5021810;28;20510;-56
2022/06/22 13:29:10;;;;;;;8.55;2.55;;;19.80;84.20;;;;;;5019349;28;20402;-59
2022/06/22 13:31:43;;;;;;;6.13;1.77;;;19.80;89.30;;;;;;5002647;28;20593;-66
2022/06/22 13:34:15;;;;;;;8.52;2.33;;;19.90;93.30;;;;;;5024872;28;20052;-57
2022/06/22 13:37:12;;;;;;;10.25;2.88;;;20.10;91.90;;;;;;5026470;28;20049;-63
2022/06/22 13:40:05;;;;;;;5.18;1.90;;;20.00;82.20;;;;;;5027427;28;20053;-59
2022/06/22 13:43:01;;;;;;;5.95;2.13;;;19.80;92.40;;;;;;5023129;28;20048;-59
2022/06/22 13:45:47;;;;;;;6.45;2.08;;;19.90;90.90;;;;;;5025127;28;20364;-65
2022/06/22 13:48:36;;;;;;;4.70;1.73;;;19.90;86.00;;;;;;4994966;28;20379;-66
2022/06/22 13:51:51;;;;;;;7.28;1.88;;;20.10;91.00;;;;;;4994730;28;20053;-59
2022/06/22 13:54:37;;;;;;;6.97;2.30;;;20.20;85.40;;;;;;4986697;28;20054;-59
2022/06/22 13:57:13;;;;;;;8.90;2.67;;;20.00;90.00;;;;;;5003277;28;20061;-59
2022/06/22 13:59:47;;;;;;;9.88;2.65;;;20.00;88.70;;;;;;5004972;28;20056;-60
2022/06/22 14:02:33;;;;;;;6.43;2.22;;;20.10;90.40;;;;;;4997538;28;20099;-69
2022/06/22 14:05:26;;;;;;;4.93;1.92;;;20.10;91.00;;;;;;5020445;28;20041;-62